createdAt,value
2022-08-09T00:00:23.454Z,96497.00
2022-08-09T00:02:51.976Z,96502.00
2022-08-09T00:06:19.590Z,96499.00
2022-08-09T00:08:11.298Z,96501.00
2022-08-09T00:10:41.011Z,96507.00
2022-08-09T00:13:17.124Z,96506.00
2022-08-09T00:15:58.864Z,96511.00
2022-08-09T00:18:34.960Z,96504.00
2022-08-09T00:21:08.497Z,96511.00
2022-08-09T00:23:56.553Z,96505.00
2022-08-09T00:26:32.556Z,96508.00
2022-08-09T00:29:02.663Z,96502.00
2022-08-09T00:31:58.778Z,96505.00
2022-08-09T00:34:19.183Z,96498.00
2022-08-09T00:36:48.811Z,96509.00
2022-08-09T00:40:01.822Z,96499.00
2022-08-09T00:44:14.739Z,96500.00
2022-08-09T00:44:51.751Z,96497.00
2022-08-09T00:47:24.943Z,96499.00
2022-08-09T00:49:54.842Z,96496.00
2022-08-09T00:52:30.370Z,96501.00
2022-08-09T00:55:01.180Z,96500.00
2022-08-09T00:57:33.778Z,96493.00
2022-08-09T01:00:20.487Z,96503.00
2022-08-09T01:03:28.460Z,96500.00
2022-08-09T01:06:03.898Z,96497.00
2022-08-09T01:09:06.136Z,96492.00
2022-08-09T01:11:53.275Z,96500.00
2022-08-09T01:14:36.511Z,96498.00
2022-08-09T01:17:12.687Z,96502.00
2022-08-09T01:20:44.733Z,96501.00
2022-08-09T01:24:01.958Z,96496.00
2022-08-09T01:27:09.970Z,96493.00
2022-08-09T01:29:58.162Z,96502.00
2022-08-09T01:32:45.455Z,96504.00
2022-08-09T01:35:37.189Z,96505.00
2022-08-09T01:38:15.425Z,96508.00
2022-08-09T01:40:52.868Z,96501.00
2022-08-09T01:43:50.781Z,96514.00
2022-08-09T01:46:28.364Z,96513.00
2022-08-09T01:49:10.662Z,96515.00
2022-08-09T01:51:53.914Z,96514.00
2022-08-09T01:54:52.849Z,96525.00
2022-08-09T01:57:27.610Z,96514.00
2022-08-09T02:00:09.058Z,96512.00
2022-08-09T02:02:50.717Z,96521.00
2022-08-09T02:05:35.554Z,96515.00
2022-08-09T02:08:39.246Z,96514.00
2022-08-09T02:11:02.705Z,96515.00
2022-08-09T02:13:40.304Z,96518.00
2022-08-09T02:16:11.338Z,96508.00
2022-08-09T02:18:42.978Z,96522.00
2022-08-09T02:21:22.199Z,96523.00
2022-08-09T02:24:00.096Z,96515.00
2022-08-09T02:26:32.749Z,96503.00
2022-08-09T02:29:07.190Z,96519.00
2022-08-09T02:31:39.388Z,96514.00
2022-08-09T02:34:41.106Z,96517.00
2022-08-09T02:37:09.244Z,96517.00
2022-08-09T02:39:49.625Z,96521.00
2022-08-09T02:42:24.889Z,96514.00
2022-08-09T02:45:11.824Z,96518.00
2022-08-09T02:47:57.573Z,96512.00
2022-08-09T02:50:35.448Z,96520.00
2022-08-09T02:53:10.396Z,96527.00
2022-08-09T02:55:58.423Z,96523.00
2022-08-09T02:58:35.593Z,96517.00
2022-08-09T03:01:07.730Z,96519.00
2022-08-09T03:04:17.628Z,96519.00
2022-08-09T03:06:29.106Z,96521.00
2022-08-09T03:08:57.981Z,96523.00
2022-08-09T03:11:30.163Z,96519.00
2022-08-09T03:14:15.902Z,96525.00
2022-08-09T03:16:45.011Z,96518.00
2022-08-09T03:19:52.393Z,96512.00
2022-08-09T03:22:12.321Z,96514.00
2022-08-09T03:25:03.359Z,96512.00
2022-08-09T03:27:45.417Z,96513.00
2022-08-09T03:30:28.127Z,96506.00
2022-08-09T03:33:11.059Z,96510.00
2022-08-09T03:36:13.569Z,96509.00
2022-08-09T03:38:30.805Z,96513.00
2022-08-09T03:40:58.246Z,96524.00
2022-08-09T03:43:31.551Z,96526.00
2022-08-09T03:46:04.882Z,96523.00
2022-08-09T03:48:57.314Z,96522.00
2022-08-09T03:51:56.911Z,96523.00
2022-08-09T03:54:16.294Z,96529.00
2022-08-09T03:56:46.615Z,96528.00
2022-08-09T03:59:21.038Z,96532.00
2022-08-09T04:01:59.270Z,96532.00
2022-08-09T04:04:32.590Z,96528.00
2022-08-09T04:07:04.620Z,96536.00
2022-08-09T04:09:41.984Z,96534.00
2022-08-09T04:12:30.811Z,96544.00
2022-08-09T04:15:01.799Z,96539.00
2022-08-09T04:17:30.171Z,96537.00
2022-08-09T04:19:58.883Z,96544.00
2022-08-09T04:22:30.093Z,96547.00
2022-08-09T04:24:59.674Z,96552.00
2022-08-09T04:27:29.096Z,96547.00
2022-08-09T04:29:56.635Z,96553.00
2022-08-09T04:32:33.817Z,96558.00
2022-08-09T04:35:10.349Z,96558.00
2022-08-09T04:37:45.424Z,96563.00
2022-08-09T04:40:19.242Z,96556.00
2022-08-09T04:42:48.420Z,96559.00
2022-08-09T04:45:20.423Z,96560.00
2022-08-09T04:47:59.206Z,96560.00
2022-08-09T04:50:33.768Z,96568.00
2022-08-09T04:53:11.576Z,96560.00
2022-08-09T04:55:43.455Z,96561.00
2022-08-09T04:58:28.095Z,96577.00
2022-08-09T05:00:57.468Z,96574.00
2022-08-09T05:03:40.209Z,96574.00
2022-08-09T05:06:27.346Z,96576.00
2022-08-09T05:09:00.262Z,96576.00
2022-08-09T05:11:32.473Z,96582.00
2022-08-09T05:14:06.045Z,96575.00
2022-08-09T05:16:58.379Z,96576.00
2022-08-09T05:19:26.083Z,96576.00
2022-08-09T05:21:55.545Z,96577.00
2022-08-09T05:24:24.798Z,96588.00
2022-08-09T05:26:53.044Z,96583.00
2022-08-09T05:29:21.572Z,96587.00
2022-08-09T05:31:57.256Z,96583.00
2022-08-09T05:34:32.127Z,96588.00
2022-08-09T05:37:07.391Z,96592.00
2022-08-09T05:39:43.911Z,96596.00
2022-08-09T05:42:20.523Z,96596.00
2022-08-09T05:44:54.967Z,96599.00
2022-08-09T05:47:24.161Z,96598.00
2022-08-09T05:50:32.286Z,96603.00
2022-08-09T05:52:42.340Z,96595.00
2022-08-09T05:55:20.368Z,96609.00
2022-08-09T05:57:57.509Z,96608.00
2022-08-09T06:00:29.185Z,96605.00
2022-08-09T06:03:02.072Z,96608.00
2022-08-09T06:05:57.691Z,96604.00
2022-08-09T06:08:24.471Z,96613.00
2022-08-09T06:10:57.937Z,96617.00
2022-08-09T06:13:27.050Z,96612.00
2022-08-09T06:15:56.165Z,96610.00
2022-08-09T06:18:25.150Z,96618.00
2022-08-09T06:20:58.447Z,96608.00
2022-08-09T06:23:57.810Z,96611.00
2022-08-09T06:26:22.340Z,96609.00
2022-08-09T06:28:59.462Z,96618.00
2022-08-09T06:31:31.218Z,96614.00
2022-08-09T06:34:06.869Z,96614.00
2022-08-09T06:36:34.548Z,96621.00
2022-08-09T06:39:02.444Z,96618.00
2022-08-09T06:42:06.411Z,96611.00
2022-08-09T06:44:25.279Z,96619.00
2022-08-09T06:46:55.270Z,96615.00
2022-08-09T06:49:45.163Z,96617.00
2022-08-09T06:52:12.211Z,96626.00
2022-08-09T06:54:43.830Z,96627.00
2022-08-09T06:57:14.326Z,96622.00
2022-08-09T07:00:52.036Z,96623.00
2022-08-09T07:02:31.146Z,96632.00
2022-08-09T07:05:00.471Z,96633.00
2022-08-09T07:08:00.027Z,96630.00
2022-08-09T07:10:24.025Z,96637.00
2022-08-09T07:12:58.268Z,96637.00
2022-08-09T07:15:53.887Z,96635.00
2022-08-09T07:18:15.019Z,96640.00
2022-08-09T07:20:43.663Z,96635.00
2022-08-09T07:23:19.230Z,96647.00
2022-08-09T07:25:52.290Z,96644.00
2022-08-09T07:28:28.049Z,96643.00
2022-08-09T07:30:56.721Z,96648.00
2022-08-09T07:33:23.902Z,96654.00
2022-08-09T07:35:53.825Z,96650.00
2022-08-09T07:38:23.284Z,96649.00
2022-08-09T07:40:52.435Z,96654.00
2022-08-09T07:43:49.647Z,96649.00
2022-08-09T07:46:19.381Z,96651.00
2022-08-09T07:48:58.995Z,96650.00
2022-08-09T07:52:04.861Z,96653.00
2022-08-09T07:54:15.705Z,96647.00
2022-08-09T07:56:55.245Z,96644.00
2022-08-09T07:59:33.916Z,96654.00
2022-08-09T08:02:02.985Z,96652.00
2022-08-09T08:04:32.350Z,96652.00
2022-08-09T08:07:27.105Z,96654.00
2022-08-09T08:10:08.985Z,96648.00
2022-08-09T08:12:45.034Z,96654.00
2022-08-09T08:15:23.217Z,96650.00
2022-08-09T08:17:55.515Z,96648.00
2022-08-09T08:20:32.761Z,96655.00
2022-08-09T08:23:16.037Z,96647.00
2022-08-09T08:25:50.450Z,96651.00
2022-08-09T08:28:34.960Z,96647.00
2022-08-09T08:31:13.826Z,96663.00
2022-08-09T08:33:52.814Z,96655.00
2022-08-09T08:36:29.333Z,96659.00
2022-08-09T08:38:59.733Z,96654.00
2022-08-09T08:41:41.851Z,96647.00
2022-08-09T08:44:26.864Z,96650.00
2022-08-09T08:47:03.304Z,96652.00
2022-08-09T08:49:48.132Z,96650.00
2022-08-09T08:55:06.623Z,96651.00
2022-08-09T08:57:34.652Z,96655.00
2022-08-09T09:00:07.916Z,96648.00
2022-08-09T09:02:41.275Z,96651.00
2022-08-09T09:05:13.341Z,96660.00
2022-08-09T09:07:45.123Z,96654.00
2022-08-09T09:10:12.373Z,96657.00
2022-08-09T09:12:41.466Z,96655.00
2022-08-09T09:15:10.281Z,96651.00
2022-08-09T09:17:48.404Z,96651.00
2022-08-09T09:20:19.019Z,96656.00
2022-08-09T09:23:01.847Z,96653.00
2022-08-09T09:26:01.911Z,96661.00
2022-08-09T09:29:02.545Z,96661.00
2022-08-09T09:32:03.491Z,96652.00
2022-08-09T09:34:18.077Z,96650.00
2022-08-09T09:36:52.788Z,96644.00
2022-08-09T09:39:23.417Z,96648.00
2022-08-09T09:41:54.282Z,96648.00
2022-08-09T09:44:31.686Z,96650.00
2022-08-09T09:47:16.939Z,96653.00
2022-08-09T09:50:07.111Z,96654.00
2022-08-09T09:52:54.570Z,96655.00
2022-08-09T09:55:28.018Z,96649.00
2022-08-09T09:58:19.256Z,96645.00
2022-08-09T10:00:59.439Z,96631.00
2022-08-09T10:04:00.130Z,96627.00
2022-08-09T10:06:43.009Z,96641.00
2022-08-09T10:09:22.372Z,96641.00
2022-08-09T10:12:14.302Z,96645.00
2022-08-09T10:14:48.516Z,96644.00
2022-08-09T10:17:50.399Z,96651.00
2022-08-09T10:20:32.459Z,96645.00
2022-08-09T10:23:22.685Z,96641.00
2022-08-09T10:26:06.623Z,96647.00
2022-08-09T10:28:37.863Z,96646.00
2022-08-09T10:32:27.571Z,96641.00
2022-08-09T10:34:10.673Z,96640.00
2022-08-09T10:36:49.877Z,96643.00
2022-08-09T10:39:19.609Z,96638.00
2022-08-09T10:41:47.678Z,96637.00
2022-08-09T10:44:22.228Z,96636.00
2022-08-09T10:47:20.293Z,96638.00
2022-08-09T10:50:52.295Z,96629.00
2022-08-09T10:53:54.554Z,96630.00
2022-08-09T10:56:29.953Z,96615.00
2022-08-09T10:58:59.750Z,96620.00
2022-08-09T11:03:15.189Z,96630.00
2022-08-09T11:04:30.803Z,96618.00
2022-08-09T11:07:00.299Z,96630.00
2022-08-09T11:09:48.151Z,96635.00
2022-08-09T11:12:29.841Z,96632.00
2022-08-09T11:15:01.335Z,96621.00
2022-08-09T11:17:31.900Z,96628.00
2022-08-09T11:20:17.979Z,96619.00
2022-08-09T11:22:57.256Z,96623.00
2022-08-09T11:25:45.632Z,96620.00
2022-08-09T11:28:54.258Z,96614.00
2022-08-09T11:31:49.015Z,96618.00
2022-08-09T11:34:44.330Z,96629.00
2022-08-09T11:37:31.226Z,96630.00
2022-08-09T11:40:12.176Z,96629.00
2022-08-09T11:42:52.749Z,96619.00
2022-08-09T11:45:42.220Z,96623.00
2022-08-09T11:48:25.339Z,96623.00
2022-08-09T11:52:53.696Z,96627.00
2022-08-09T11:53:59.917Z,96609.00
2022-08-09T11:56:42.808Z,96612.00
2022-08-09T11:59:30.490Z,96616.00
2022-08-09T12:02:34.255Z,96604.00
2022-08-09T12:04:58.824Z,96604.00
2022-08-09T12:07:41.675Z,96621.00
2022-08-09T12:10:14.407Z,96611.00
2022-08-09T12:14:06.393Z,96617.00
2022-08-09T12:15:52.110Z,96605.00
2022-08-09T12:18:29.634Z,96599.00
2022-08-09T12:21:02.503Z,96611.00
2022-08-09T12:23:56.464Z,96607.00
2022-08-09T12:26:25.696Z,96617.00
2022-08-09T12:29:11.528Z,96599.00
2022-08-09T12:32:01.965Z,96582.00
2022-08-09T12:34:42.372Z,96593.00
2022-08-09T12:37:24.173Z,96590.00
2022-08-09T12:40:12.700Z,96600.00
2022-08-09T12:42:50.542Z,96599.00
2022-08-09T12:45:32.305Z,96597.00
2022-08-09T12:48:19.785Z,96597.00
2022-08-09T12:50:57.040Z,96600.00
2022-08-09T12:53:38.656Z,96588.00
2022-08-09T12:56:43.814Z,96597.00
2022-08-09T12:59:21.565Z,96584.00
2022-08-09T13:02:02.133Z,96597.00
2022-08-09T13:04:36.847Z,96591.00
2022-08-09T13:07:19.906Z,96584.00
2022-08-09T13:10:04.803Z,96578.00
2022-08-09T13:12:32.620Z,96582.00
2022-08-09T13:15:08.948Z,96587.00
2022-08-09T13:18:03.126Z,96588.00
2022-08-09T13:21:04.208Z,96580.00
2022-08-09T13:24:17.207Z,96574.00
2022-08-09T13:26:42.520Z,96586.00
2022-08-09T13:29:14.282Z,96589.00
2022-08-09T13:32:20.025Z,96579.00
2022-08-09T13:34:51.126Z,96578.00
2022-08-09T13:37:51.246Z,96564.00
2022-08-09T13:41:51.048Z,96558.00
2022-08-09T13:42:59.415Z,96570.00
2022-08-09T13:45:32.636Z,96569.00
2022-08-09T13:48:17.987Z,96571.00
2022-08-09T13:50:45.899Z,96562.00
2022-08-09T13:53:16.768Z,96568.00
2022-08-09T13:55:44.739Z,96560.00
2022-08-09T13:58:14.877Z,96558.00
2022-08-09T14:00:50.017Z,96562.00
2022-08-09T14:04:02.812Z,96557.00
2022-08-09T14:06:19.480Z,96542.00
2022-08-09T14:08:54.881Z,96565.00
2022-08-09T14:11:22.264Z,96557.00
2022-08-09T14:14:24.068Z,96557.00
2022-08-09T14:16:40.210Z,96559.00
2022-08-09T14:19:08.167Z,96554.00
2022-08-09T14:21:35.492Z,96550.00
2022-08-09T14:24:10.297Z,96544.00
2022-08-09T14:26:51.831Z,96559.00
2022-08-09T14:30:18.915Z,96552.00
2022-08-09T14:32:11.259Z,96545.00
2022-08-09T14:34:40.869Z,96544.00
2022-08-09T14:37:08.911Z,96544.00
2022-08-09T14:39:40.194Z,96549.00
2022-08-09T14:42:31.362Z,96540.00
2022-08-09T14:46:39.853Z,96545.00
2022-08-09T14:47:58.708Z,96546.00
2022-08-09T14:50:33.030Z,96542.00
2022-08-09T14:53:06.124Z,96544.00
2022-08-09T14:55:38.186Z,96541.00
2022-08-09T14:58:11.982Z,96542.00
2022-08-09T15:00:42.298Z,96536.00
2022-08-09T15:03:10.550Z,96531.00
2022-08-09T15:05:39.695Z,96548.00
2022-08-09T15:08:18.966Z,96535.00
2022-08-09T15:11:00.979Z,96528.00
2022-08-09T15:13:47.816Z,96531.00
2022-08-09T15:16:15.879Z,96531.00
2022-08-09T15:18:43.529Z,96512.00
2022-08-09T15:21:58.617Z,96528.00
2022-08-09T15:24:11.466Z,96529.00
2022-08-09T15:26:45.878Z,96526.00
2022-08-09T15:30:58.147Z,96530.00
2022-08-09T15:32:06.292Z,96526.00
2022-08-09T15:34:54.788Z,96522.00
2022-08-09T15:37:37.530Z,96519.00
2022-08-09T15:40:25.325Z,96520.00
2022-08-09T15:43:00.539Z,96518.00
2022-08-09T15:45:30.229Z,96508.00
2022-08-09T15:48:05.230Z,96514.00
2022-08-09T15:50:43.784Z,96526.00
2022-08-09T15:53:32.694Z,96510.00
2022-08-09T15:58:46.577Z,96515.00
2022-08-09T16:01:14.632Z,96512.00
2022-08-09T16:03:46.623Z,96516.00
2022-08-09T16:06:32.638Z,96512.00
2022-08-09T16:09:05.464Z,96512.00
2022-08-09T16:11:33.726Z,96514.00
2022-08-09T16:14:07.120Z,96510.00
2022-08-09T16:16:42.003Z,96511.00
2022-08-09T16:19:14.016Z,96507.00
2022-08-09T16:21:48.698Z,96510.00
2022-08-09T16:24:29.976Z,96520.00
2022-08-09T16:27:01.929Z,96511.00
2022-08-09T16:29:37.662Z,96506.00
2022-08-09T16:32:33.625Z,96511.00
2022-08-09T16:35:02.498Z,96513.00
2022-08-09T16:37:54.839Z,96510.00
2022-08-09T16:40:30.067Z,96507.00
2022-08-09T16:43:07.810Z,96503.00
2022-08-09T16:45:41.693Z,96509.00
2022-08-09T16:48:38.020Z,96507.00
2022-08-09T16:51:08.294Z,96503.00
2022-08-09T16:54:08.975Z,96506.00
2022-08-09T16:56:33.260Z,96507.00
2022-08-09T16:59:10.746Z,96500.00
2022-08-09T17:01:38.962Z,96497.00
2022-08-09T17:04:09.794Z,96507.00
2022-08-09T17:08:46.138Z,96503.00
2022-08-09T17:09:45.440Z,96501.00
2022-08-09T17:12:14.893Z,96499.00
2022-08-09T17:14:47.987Z,96506.00
2022-08-09T17:17:26.783Z,96504.00
2022-08-09T17:23:01.527Z,96503.00
2022-08-09T17:25:30.725Z,96514.00
2022-08-09T17:28:04.665Z,96502.00
2022-08-09T17:30:34.286Z,96505.00
2022-08-09T17:33:05.654Z,96500.00
2022-08-09T17:35:49.424Z,96513.00
2022-08-09T17:38:34.283Z,96506.00
2022-08-09T17:41:06.215Z,96508.00
2022-08-09T17:43:37.375Z,96510.00
2022-08-09T17:46:09.203Z,96519.00
2022-08-09T17:48:46.482Z,96510.00
2022-08-09T17:51:20.732Z,96516.00
2022-08-09T17:53:54.637Z,96518.00
2022-08-09T17:56:35.525Z,96513.00
2022-08-09T17:59:09.262Z,96522.00
2022-08-09T18:02:11.000Z,96524.00
2022-08-09T18:04:28.977Z,96521.00
2022-08-09T18:06:56.660Z,96525.00
2022-08-09T18:09:40.121Z,96524.00
2022-08-09T18:12:20.318Z,96529.00
2022-08-09T18:14:53.624Z,96527.00
2022-08-09T18:17:27.575Z,96524.00
2022-08-09T18:20:54.789Z,96526.00
2022-08-09T18:23:05.253Z,96528.00
2022-08-09T18:25:51.155Z,96532.00
2022-08-09T18:30:42.021Z,96530.00
2022-08-09T18:31:15.513Z,96529.00
2022-08-09T18:33:53.592Z,96531.00
2022-08-09T18:36:25.558Z,96527.00
2022-08-09T18:39:02.138Z,96534.00
2022-08-09T18:41:34.978Z,96533.00
2022-08-09T18:44:13.469Z,96544.00
2022-08-09T18:46:47.642Z,96542.00
2022-08-09T18:49:20.941Z,96549.00
2022-08-09T18:51:55.201Z,96543.00
2022-08-09T18:54:29.748Z,96558.00
2022-08-09T18:57:05.173Z,96552.00
2022-08-09T18:59:37.409Z,96558.00
2022-08-09T19:02:18.426Z,96557.00
2022-08-09T19:04:47.630Z,96568.00
2022-08-09T19:07:35.634Z,96568.00
2022-08-09T19:10:15.504Z,96571.00
2022-08-09T19:12:52.967Z,96581.00
2022-08-09T19:15:34.490Z,96584.00
2022-08-09T19:18:02.129Z,96590.00
2022-08-09T19:20:38.897Z,96589.00
2022-08-09T19:23:16.635Z,96590.00
2022-08-09T19:26:02.146Z,96589.00
2022-08-09T19:28:32.403Z,96583.00
2022-08-09T19:30:59.737Z,96583.00
2022-08-09T19:33:27.533Z,96586.00
2022-08-09T19:35:57.043Z,96588.00
2022-08-09T19:38:27.716Z,96582.00
2022-08-09T19:40:57.722Z,96592.00
2022-08-09T19:44:01.785Z,96601.00
2022-08-09T19:46:17.016Z,96594.00
2022-08-09T19:50:05.369Z,96596.00
2022-08-09T19:51:55.829Z,96594.00
2022-08-09T19:54:25.299Z,96598.00
2022-08-09T19:56:55.751Z,96599.00
2022-08-09T19:59:58.343Z,96602.00
2022-08-09T20:02:18.335Z,96612.00
2022-08-09T20:05:01.971Z,96601.00
2022-08-09T20:07:59.249Z,96599.00
2022-08-09T20:10:33.938Z,96602.00
2022-08-09T20:13:09.578Z,96609.00
2022-08-09T20:16:32.900Z,96612.00
2022-08-09T20:18:28.192Z,96608.00
2022-08-09T20:20:57.190Z,96623.00
2022-08-09T20:23:38.935Z,96612.00
2022-08-09T20:26:10.045Z,96621.00
2022-08-09T20:28:48.138Z,96617.00
2022-08-09T20:31:15.841Z,96616.00
2022-08-09T20:33:44.148Z,96615.00
2022-08-09T20:36:13.427Z,96618.00
2022-08-09T20:39:28.059Z,96618.00
2022-08-09T20:41:35.145Z,96614.00
2022-08-09T20:44:06.847Z,96607.00
2022-08-09T20:46:42.846Z,96610.00
2022-08-09T20:49:15.722Z,96618.00
2022-08-09T20:51:44.600Z,96628.00
2022-08-09T20:54:18.138Z,96618.00
2022-08-09T20:56:49.739Z,96621.00
2022-08-09T20:59:24.935Z,96620.00
2022-08-09T21:02:17.398Z,96615.00
2022-08-09T21:05:53.879Z,96625.00
2022-08-09T21:07:38.660Z,96626.00
2022-08-09T21:10:09.362Z,96607.00
2022-08-09T21:12:39.702Z,96629.00
2022-08-09T21:15:12.759Z,96611.00
2022-08-09T21:18:22.258Z,96617.00
2022-08-09T21:20:30.829Z,96610.00
2022-08-09T21:23:00.477Z,96611.00
2022-08-09T21:25:55.706Z,96615.00
2022-08-09T21:28:36.015Z,96619.00
2022-08-09T21:31:13.693Z,96601.00
2022-08-09T21:33:51.369Z,96603.00
2022-08-09T21:36:27.945Z,96617.00
2022-08-09T21:38:59.300Z,96613.00
2022-08-09T21:42:04.789Z,96605.00
2022-08-09T21:44:34.169Z,96610.00
2022-08-09T21:47:09.002Z,96605.00
2022-08-09T21:49:39.613Z,96623.00
2022-08-09T21:52:17.810Z,96620.00
2022-08-09T21:54:59.327Z,96616.00
2022-08-09T21:57:59.399Z,96608.00
2022-08-09T22:00:33.386Z,96608.00
2022-08-09T22:03:06.351Z,96620.00
2022-08-09T22:05:42.465Z,96613.00
2022-08-09T22:08:14.703Z,96615.00
2022-08-09T22:11:50.076Z,96623.00
2022-08-09T22:13:36.614Z,96624.00
2022-08-09T22:16:09.218Z,96629.00
2022-08-09T22:18:44.032Z,96618.00
2022-08-09T22:21:45.111Z,96622.00
2022-08-09T22:24:24.290Z,96614.00
2022-08-09T22:26:53.487Z,96624.00
2022-08-09T22:29:38.347Z,96624.00
2022-08-09T22:32:34.490Z,96621.00
2022-08-09T22:36:02.879Z,96626.00
2022-08-09T22:38:18.038Z,96617.00
2022-08-09T22:40:48.746Z,96625.00
2022-08-09T22:44:02.275Z,96631.00
2022-08-09T22:48:16.516Z,96621.00
2022-08-09T22:54:04.499Z,96633.00
2022-08-09T22:56:35.395Z,96639.00
2022-08-09T22:59:57.638Z,96640.00
2022-08-09T23:01:53.492Z,96637.00
2022-08-09T23:04:20.703Z,96635.00
2022-08-09T23:07:11.251Z,96644.00
2022-08-09T23:09:40.272Z,96633.00
2022-08-09T23:12:13.745Z,96622.00
2022-08-09T23:14:42.185Z,96622.00
2022-08-09T23:17:10.841Z,96618.00
2022-08-09T23:20:01.014Z,96622.00
2022-08-09T23:22:26.944Z,96625.00
2022-08-09T23:24:55.083Z,96627.00
2022-08-09T23:27:26.522Z,96620.00
2022-08-09T23:29:53.889Z,96604.00
2022-08-09T23:32:21.109Z,96609.00
2022-08-09T23:34:51.461Z,96609.00
2022-08-09T23:37:21.544Z,96605.00
2022-08-09T23:42:40.747Z,96607.00
2022-08-09T23:45:09.111Z,96604.00
2022-08-09T23:47:41.662Z,96601.00
2022-08-09T23:50:09.342Z,96608.00
2022-08-09T23:52:36.663Z,96609.00
2022-08-09T23:55:05.197Z,96603.00
2022-08-09T23:57:54.417Z,96596.00
